Time;durP1;ratioP1;P1;durP2;ratioP2;P2;SDS_P1;SDS_P2;PMS_P1;PMS_P2;Temp;Humidity;BMP_temperature;BMP_pressure;BME280_temperature;BME280_humidity;BME280_pressure;Samples;Min_cycle;Max_cycle;Signal;HPM_P1;HPM_P2
2023/08/27 00:01:11;;;;;;;11.10;8.63;;;13.60;99.90;;;;;;5053735;28;20044;-76
2023/08/27 00:03:36;;;;;;;10.45;8.57;;;13.60;99.90;;;;;;5036824;28;20045;-76
2023/08/27 00:06:02;;;;;;;11.45;9.32;;;13.60;99.90;;;;;;5053845;28;20127;-79
2023/08/27 00:08:28;;;;;;;11.07;8.52;;;13.50;99.90;;;;;;5054258;28;20512;-79
2023/08/27 00:11:00;;;;;;;12.65;9.10;;;13.50;99.90;;;;;;5054223;28;20053;-79
2023/08/27 00:13:26;;;;;;;11.68;8.50;;;13.50;99.90;;;;;;5036020;28;20053;-74
2023/08/27 00:15:52;;;;;;;14.00;8.48;;;13.50;99.90;;;;;;5054052;28;20037;-74
2023/08/27 00:18:18;;;;;;;12.63;8.52;;;13.40;99.90;;;;;;5054178;28;20052;-79
2023/08/27 00:20:48;;;;;;;11.77;8.48;;;13.40;99.90;;;;;;5053813;28;20077;-73
2023/08/27 00:23:14;;;;;;;12.18;9.05;;;13.30;99.90;;;;;;5054573;28;20069;-74
2023/08/27 00:25:42;;;;;;;12.02;8.40;;;13.30;99.90;;;;;;5054276;28;20076;-77
2023/08/27 00:28:07;;;;;;;10.73;8.20;;;13.30;99.90;;;;;;5053699;28;20065;-76
2023/08/27 00:30:33;;;;;;;11.23;8.45;;;13.30;99.90;;;;;;5054450;28;20502;-76
2023/08/27 00:32:59;;;;;;;11.77;8.65;;;13.30;99.90;;;;;;5035163;28;20045;-76
2023/08/27 00:35:24;;;;;;;9.88;7.55;;;13.30;99.90;;;;;;5056152;28;20145;-77
2023/08/27 00:37:50;;;;;;;10.77;8.10;;;13.30;99.90;;;;;;5047484;28;20037;-76
2023/08/27 00:40:16;;;;;;;9.82;7.88;;;13.30;99.90;;;;;;5050703;28;20087;-77
2023/08/27 00:42:41;;;;;;;10.65;8.15;;;13.30;99.90;;;;;;5034828;28;20041;-76
2023/08/27 00:45:08;;;;;;;11.32;8.23;;;13.30;99.90;;;;;;5036231;28;20053;-76
2023/08/27 00:47:38;;;;;;;10.10;8.27;;;13.30;99.90;;;;;;5032000;28;20485;-76
2023/08/27 00:50:08;;;;;;;10.30;7.15;;;13.30;99.90;;;;;;5049229;28;20040;-76
2023/08/27 00:52:37;;;;;;;12.93;8.88;;;13.30;99.90;;;;;;5034234;28;20120;-76
2023/08/27 00:55:04;;;;;;;10.98;8.48;;;13.30;99.90;;;;;;5049962;28;20128;-76
2023/08/27 00:57:31;;;;;;;9.45;7.75;;;13.30;99.90;;;;;;5034072;28;20090;-76
2023/08/27 00:59:58;;;;;;;8.82;7.40;;;13.30;99.90;;;;;;5051250;28;20389;-76
2023/08/27 01:02:24;;;;;;;10.27;8.10;;;13.30;99.90;;;;;;5050767;28;20040;-76
2023/08/27 01:04:50;;;;;;;10.57;8.10;;;13.30;99.90;;;;;;5050905;28;20040;-76
2023/08/27 01:07:52;;;;;;;8.95;6.90;;;13.30;99.90;;;;;;5051369;28;20127;-78
2023/08/27 01:10:24;;;;;;;10.05;7.50;;;13.40;99.90;;;;;;5033054;28;20049;-77
2023/08/27 01:13:03;;;;;;;11.80;7.80;;;13.30;99.90;;;;;;5051854;28;20095;-77
2023/08/27 01:15:32;;;;;;;10.02;7.57;;;13.40;99.90;;;;;;5034929;28;20562;-76
2023/08/27 01:18:03;;;;;;;11.18;7.47;;;13.50;99.90;;;;;;5052767;28;20055;-77
2023/08/27 01:20:30;;;;;;;12.23;7.35;;;13.40;99.90;;;;;;5035752;28;20095;-77
2023/08/27 01:22:56;;;;;;;9.82;7.28;;;13.40;99.90;;;;;;5033719;28;20119;-77
2023/08/27 01:25:55;;;;;;;8.80;7.28;;;13.50;99.90;;;;;;5029475;28;20041;-77
2023/08/27 01:28:32;;;;;;;11.25;7.18;;;13.50;99.90;;;;;;5043191;28;20125;-77
2023/08/27 01:31:06;;;;;;;;;;;13.50;99.90;;;;;;5032733;28;20045;-77
2023/08/27 01:33:33;;;;;;;9.50;7.20;;;13.40;99.90;;;;;;5053295;28;19925;-77
2023/08/27 01:35:59;;;;;;;14.68;7.75;;;13.40;99.90;;;;;;5052822;28;20041;-77
2023/08/27 01:38:25;;;;;;;9.25;7.28;;;13.40;99.90;;;;;;5052551;28;20048;-77
2023/08/27 01:40:51;;;;;;;10.27;7.57;;;13.40;99.90;;;;;;5034390;28;20049;-77
2023/08/27 01:43:17;;;;;;;11.10;7.65;;;13.40;99.90;;;;;;5033609;28;20051;-77
2023/08/27 01:45:42;;;;;;;10.65;7.60;;;13.50;99.90;;;;;;5053057;28;20041;-76
2023/08/27 01:48:08;;;;;;;11.15;8.23;;;13.50;99.90;;;;;;5052623;28;20128;-76
2023/08/27 01:50:34;;;;;;;10.18;7.97;;;13.50;99.90;;;;;;5058144;28;20036;-76
2023/08/27 01:52:59;;;;;;;10.50;7.72;;;13.50;99.90;;;;;;5054327;28;20044;-76
2023/08/27 01:55:25;;;;;;;9.65;7.22;;;13.50;99.90;;;;;;5054928;28;20094;-76
2023/08/27 01:57:50;;;;;;;12.40;8.68;;;13.40;99.90;;;;;;5037129;28;20041;-76
2023/08/27 02:00:18;;;;;;;9.63;7.80;;;13.50;99.90;;;;;;5051655;28;20047;-76
2023/08/27 02:02:45;;;;;;;10.95;7.90;;;13.50;99.90;;;;;;5052776;28;20052;-77
2023/08/27 02:05:10;;;;;;;11.77;7.95;;;13.50;99.90;;;;;;5050754;28;20037;-77
2023/08/27 02:07:38;;;;;;;11.80;8.88;;;13.50;99.90;;;;;;5024912;28;20119;-76
2023/08/27 02:10:05;;;;;;;12.07;8.52;;;13.40;99.90;;;;;;5010466;28;20049;-76
2023/08/27 02:12:31;;;;;;;11.50;8.02;;;13.40;99.90;;;;;;5010637;28;20056;-76
2023/08/27 02:14:57;;;;;;;12.15;8.80;;;13.40;99.90;;;;;;5011975;28;20045;-76
2023/08/27 02:17:22;;;;;;;12.05;8.38;;;13.40;99.90;;;;;;5012668;28;20556;-76
2023/08/27 02:19:48;;;;;;;10.77;8.70;;;13.30;99.90;;;;;;5011723;28;20125;-76
2023/08/27 02:22:14;;;;;;;11.80;8.43;;;13.40;99.90;;;;;;5012340;28;20494;-76
2023/08/27 02:24:39;;;;;;;11.57;8.50;;;13.30;99.90;;;;;;5010364;28;20037;-76
2023/08/27 02:27:05;;;;;;;11.88;8.57;;;13.30;99.90;;;;;;5009884;28;20057;-76
2023/08/27 02:29:31;;;;;;;11.75;8.27;;;13.30;99.90;;;;;;5010275;28;20038;-76
2023/08/27 02:31:56;;;;;;;12.13;8.95;;;13.30;99.90;;;;;;5009064;28;20133;-77
2023/08/27 02:34:22;;;;;;;11.27;8.43;;;13.20;99.90;;;;;;5009580;28;20118;-76
2023/08/27 02:36:47;;;;;;;11.75;8.38;;;13.20;99.90;;;;;;5009126;28;20120;-76
2023/08/27 02:39:13;;;;;;;10.73;8.57;;;13.10;99.90;;;;;;5011648;28;20061;-76
2023/08/27 02:41:39;;;;;;;11.75;9.30;;;13.10;99.90;;;;;;5010525;28;20104;-76
2023/08/27 02:44:05;;;;;;;11.80;8.98;;;13.10;99.90;;;;;;5010771;28;20044;-76
2023/08/27 02:46:30;;;;;;;12.07;9.13;;;13.10;99.90;;;;;;5011739;28;20085;-76
2023/08/27 02:48:56;;;;;;;12.82;8.48;;;13.10;99.90;;;;;;5012368;28;20046;-76
2023/08/27 02:51:22;;;;;;;11.25;8.55;;;13.20;99.90;;;;;;5012418;28;20038;-76
2023/08/27 02:53:51;;;;;;;13.57;9.52;;;13.10;99.90;;;;;;5010503;28;20057;-76
2023/08/27 02:56:17;;;;;;;12.70;8.98;;;13.10;99.90;;;;;;5012508;28;20085;-76
2023/08/27 02:58:47;;;;;;;13.70;8.70;;;13.10;99.90;;;;;;5012297;28;20132;-76
2023/08/27 03:01:20;;;;;;;10.77;8.88;;;13.10;99.90;;;;;;5007466;28;20050;-76
2023/08/27 03:03:47;;;;;;;12.68;8.63;;;13.10;99.90;;;;;;5011346;28;20054;-76
2023/08/27 03:06:13;;;;;;;12.40;9.25;;;13.20;99.90;;;;;;5012651;28;20374;-76
2023/08/27 03:08:39;;;;;;;10.93;8.68;;;13.10;99.90;;;;;;5039552;28;20515;-76
2023/08/27 03:11:04;;;;;;;12.93;8.82;;;13.20;99.90;;;;;;5033803;28;20064;-76
2023/08/27 03:13:30;;;;;;;12.90;9.38;;;13.20;99.90;;;;;;5034067;28;20045;-77
2023/08/27 03:15:56;;;;;;;10.90;8.57;;;13.20;99.90;;;;;;5032756;28;20448;-77
2023/08/27 03:18:21;;;;;;;12.40;9.35;;;13.30;99.90;;;;;;5051886;28;20044;-77
2023/08/27 03:20:47;;;;;;;12.18;9.25;;;13.30;99.90;;;;;;5033759;28;20120;-76
2023/08/27 03:23:13;;;;;;;11.27;8.82;;;13.30;99.90;;;;;;5033421;28;20041;-77
2023/08/27 03:25:38;;;;;;;11.75;9.02;;;13.30;99.90;;;;;;5055053;28;20048;-76
2023/08/27 03:28:04;;;;;;;13.32;9.45;;;13.30;99.90;;;;;;5055338;28;20045;-76
2023/08/27 03:30:30;;;;;;;14.18;9.93;;;13.30;99.90;;;;;;5054743;28;20045;-77
2023/08/27 03:32:56;;;;;;;14.00;10.43;;;13.30;99.90;;;;;;5055084;28;20496;-76
2023/08/27 03:35:21;;;;;;;12.35;9.35;;;13.30;99.90;;;;;;5055515;28;20166;-76
2023/08/27 03:37:47;;;;;;;11.77;9.52;;;13.30;99.90;;;;;;5054226;28;20051;-76
2023/08/27 03:40:13;;;;;;;12.63;9.57;;;13.30;99.90;;;;;;5055222;28;20075;-76
2023/08/27 03:42:38;;;;;;;13.60;9.25;;;13.40;99.90;;;;;;5054578;28;20053;-76
2023/08/27 03:45:04;;;;;;;15.07;9.98;;;13.50;99.90;;;;;;5054673;28;20463;-76
2023/08/27 03:47:33;;;;;;;12.70;9.43;;;13.50;99.90;;;;;;5054553;28;20090;-76
2023/08/27 03:49:58;;;;;;;14.65;10.25;;;13.40;99.90;;;;;;5053546;28;20567;-76
2023/08/27 03:52:24;;;;;;;11.38;8.40;;;13.50;99.90;;;;;;5055276;28;20099;-76
2023/08/27 03:54:50;;;;;;;12.93;9.88;;;13.60;99.90;;;;;;5054710;28;20075;-76
2023/08/27 03:57:15;;;;;;;12.73;9.73;;;13.60;99.90;;;;;;5054038;28;20500;-76
2023/08/27 03:59:41;;;;;;;11.60;8.52;;;13.70;99.90;;;;;;5055101;28;20044;-76
2023/08/27 04:02:08;;;;;;;15.27;10.35;;;13.70;99.90;;;;;;5036837;28;20049;-76
2023/08/27 04:04:34;;;;;;;14.73;9.57;;;13.70;99.90;;;;;;5053944;28;20072;-76
2023/08/27 04:07:01;;;;;;;13.50;9.82;;;13.70;99.90;;;;;;5054262;28;20068;-76
2023/08/27 04:09:27;;;;;;;14.05;9.43;;;13.60;99.90;;;;;;5036836;28;20045;-76
2023/08/27 04:11:53;;;;;;;12.52;9.90;;;13.70;99.90;;;;;;5035951;28;20447;-76
2023/08/27 04:14:18;;;;;;;13.82;9.65;;;13.80;99.90;;;;;;5054976;28;20037;-76
2023/08/27 04:16:44;;;;;;;14.70;9.07;;;13.70;99.90;;;;;;5054780;28;20518;-76
2023/08/27 04:19:12;;;;;;;14.95;10.38;;;13.80;99.90;;;;;;5053271;28;20116;-76
2023/08/27 04:21:38;;;;;;;16.20;9.90;;;13.80;99.90;;;;;;5054193;28;20045;-76
2023/08/27 04:24:04;;;;;;;16.02;9.90;;;13.90;99.90;;;;;;5036147;28;20048;-76
2023/08/27 04:26:30;;;;;;;13.98;9.15;;;13.90;99.90;;;;;;5053866;28;20060;-77
2023/08/27 04:28:55;;;;;;;14.05;9.57;;;14.00;99.90;;;;;;5053806;28;20045;-76
2023/08/27 04:31:21;;;;;;;15.18;8.73;;;14.00;99.90;;;;;;5036368;28;20381;-76
2023/08/27 04:33:50;;;;;;;12.25;9.20;;;14.00;99.90;;;;;;5035392;28;20044;-76
2023/08/27 04:36:16;;;;;;;13.38;8.73;;;14.00;99.90;;;;;;5035405;28;20404;-76
2023/08/27 04:38:41;;;;;;;12.02;8.45;;;14.00;99.90;;;;;;5035745;28;20041;-76
2023/08/27 04:41:07;;;;;;;11.40;7.60;;;14.10;99.90;;;;;;5053156;28;20049;-77
2023/08/27 04:43:33;;;;;;;11.68;7.97;;;14.10;99.90;;;;;;5054146;28;20048;-76
2023/08/27 04:45:59;;;;;;;11.43;8.18;;;14.10;99.90;;;;;;5035291;28;20053;-76
2023/08/27 04:48:24;;;;;;;11.77;8.07;;;14.10;99.90;;;;;;5053433;28;20033;-76
2023/08/27 04:50:50;;;;;;;13.13;9.20;;;14.20;99.90;;;;;;5035525;28;20056;-76
2023/08/27 04:53:16;;;;;;;18.30;9.75;;;14.20;99.90;;;;;;5052998;28;20037;-76
2023/08/27 04:55:42;;;;;;;18.77;9.60;;;14.30;99.90;;;;;;5053700;28;20048;-75
2023/08/27 04:58:08;;;;;;;17.13;9.98;;;14.30;99.90;;;;;;5053033;28;20041;-75
2023/08/27 05:00:34;;;;;;;15.98;10.27;;;14.30;99.90;;;;;;5053055;28;20067;-76
2023/08/27 05:03:02;;;;;;;15.35;10.60;;;14.40;99.90;;;;;;5053209;28;20041;-75
2023/08/27 05:05:28;;;;;;;16.77;11.10;;;14.40;99.90;;;;;;5053860;28;20127;-76
2023/08/27 05:07:54;;;;;;;16.52;10.57;;;14.40;99.90;;;;;;5052176;28;20128;-75
2023/08/27 05:10:20;;;;;;;15.68;11.40;;;14.40;99.90;;;;;;5035365;28;20480;-75
2023/08/27 05:12:46;;;;;;;15.02;10.40;;;14.40;99.90;;;;;;5053646;28;20120;-75
2023/08/27 05:15:12;;;;;;;13.48;9.73;;;14.40;99.90;;;;;;5052734;28;20480;-75
2023/08/27 05:17:37;;;;;;;13.52;9.32;;;14.50;99.90;;;;;;5035695;28;20099;-75
2023/08/27 05:20:04;;;;;;;15.82;10.07;;;14.40;99.90;;;;;;5053060;28;20041;-75
2023/08/27 05:22:30;;;;;;;12.68;9.68;;;14.50;99.90;;;;;;5052344;28;20052;-75
2023/08/27 05:24:55;;;;;;;14.57;9.57;;;14.50;99.90;;;;;;5052415;28;20064;-75
2023/08/27 05:27:21;;;;;;;11.95;8.40;;;14.50;99.90;;;;;;5035713;28;20045;-75
2023/08/27 05:29:46;;;;;;;13.15;9.23;;;14.60;99.90;;;;;;5051970;28;20036;-75
2023/08/27 05:32:12;;;;;;;13.65;8.70;;;14.50;99.90;;;;;;5053311;28;20098;-75
2023/08/27 05:34:41;;;;;;;15.73;8.50;;;14.60;99.90;;;;;;5052832;28;20040;-75
2023/08/27 05:37:06;;;;;;;12.73;8.60;;;14.50;99.90;;;;;;5052022;28;20041;-75
2023/08/27 05:39:32;;;;;;;12.30;7.53;;;14.60;99.90;;;;;;5035142;28;20495;-75
2023/08/27 05:41:57;;;;;;;12.27;7.32;;;14.60;99.90;;;;;;5052324;28;20037;-75
2023/08/27 05:44:23;;;;;;;13.40;7.10;;;14.60;99.90;;;;;;5051908;28;20472;-75
2023/08/27 05:46:49;;;;;;;9.98;6.90;;;14.60;99.90;;;;;;5034534;28;20377;-75
2023/08/27 05:49:14;;;;;;;9.90;7.38;;;14.60;99.90;;;;;;5052251;28;20476;-74
2023/08/27 05:51:43;;;;;;;12.80;8.07;;;14.60;99.90;;;;;;5034645;28;20052;-75
2023/08/27 05:54:08;;;;;;;11.50;6.85;;;14.70;99.90;;;;;;5052173;28;20041;-75
2023/08/27 05:56:34;;;;;;;10.07;6.82;;;14.70;99.90;;;;;;5034002;28;20047;-75
2023/08/27 05:58:59;;;;;;;11.30;7.55;;;14.60;99.90;;;;;;5052462;28;20052;-76
2023/08/27 06:01:25;;;;;;;10.68;7.07;;;14.50;99.90;;;;;;5051942;28;20119;-75
2023/08/27 06:03:51;;;;;;;11.88;7.40;;;14.50;99.90;;;;;;5033474;28;20124;-76
2023/08/27 06:06:16;;;;;;;10.43;7.28;;;14.40;99.90;;;;;;5052557;28;20472;-76
2023/08/27 06:08:42;;;;;;;11.80;7.90;;;14.30;99.90;;;;;;5052323;28;20473;-76
2023/08/27 06:11:08;;;;;;;11.45;8.35;;;14.40;99.90;;;;;;5051468;28;20045;-76
2023/08/27 06:13:33;;;;;;;13.77;8.75;;;14.40;99.90;;;;;;5052581;28;20489;-76
2023/08/27 06:15:59;;;;;;;12.80;9.55;;;14.40;99.90;;;;;;5051945;28;20117;-76
2023/08/27 06:18:25;;;;;;;13.77;9.77;;;14.40;99.90;;;;;;5032867;28;20117;-75
2023/08/27 06:20:51;;;;;;;14.25;10.05;;;14.40;99.90;;;;;;5033832;28;20446;-76
2023/08/27 06:23:18;;;;;;;14.15;9.85;;;14.50;99.90;;;;;;5052600;28;20098;-76
2023/08/27 06:25:44;;;;;;;14.45;10.30;;;14.60;99.90;;;;;;5051515;28;20472;-76
2023/08/27 06:28:10;;;;;;;16.80;10.18;;;14.60;99.90;;;;;;5034181;28;20044;-76
2023/08/27 06:30:40;;;;;;;14.60;9.48;;;14.70;99.90;;;;;;5034528;28;20135;-76
2023/08/27 06:33:06;;;;;;;12.00;8.98;;;14.70;99.90;;;;;;5050870;28;20052;-75
2023/08/27 06:35:32;;;;;;;12.77;8.73;;;14.80;99.90;;;;;;5051951;28;20049;-76
2023/08/27 06:37:57;;;;;;;13.52;8.93;;;14.90;99.90;;;;;;5052035;28;20041;-76
2023/08/27 06:40:23;;;;;;;15.18;8.88;;;14.80;99.90;;;;;;5051616;28;20056;-76
2023/08/27 06:42:49;;;;;;;12.25;8.90;;;15.00;99.90;;;;;;5051422;28;20045;-76
2023/08/27 06:45:14;;;;;;;13.65;7.90;;;15.00;99.90;;;;;;5052063;28;20045;-75
2023/08/27 06:47:40;;;;;;;14.70;8.43;;;15.10;99.90;;;;;;5051466;28;20052;-75
2023/08/27 06:50:06;;;;;;;12.57;6.88;;;15.10;99.90;;;;;;5033592;28;20049;-76
2023/08/27 06:52:34;;;;;;;12.45;7.65;;;15.20;99.90;;;;;;5051111;28;20094;-75
2023/08/27 06:55:01;;;;;;;12.45;6.90;;;15.20;99.90;;;;;;5028662;28;20041;-76
2023/08/27 06:57:26;;;;;;;10.48;6.43;;;15.30;99.90;;;;;;5023158;28;20037;-75
2023/08/27 06:59:52;;;;;;;9.98;5.63;;;15.40;99.90;;;;;;5018194;28;20042;-75
2023/08/27 07:02:18;;;;;;;10.30;5.35;;;15.50;99.90;;;;;;5036188;28;20124;-75
2023/08/27 07:04:43;;;;;;;8.93;5.22;;;15.50;99.90;;;;;;5027148;28;20033;-75
2023/08/27 07:07:09;;;;;;;12.77;5.18;;;15.60;99.90;;;;;;5050413;28;20483;-75
2023/08/27 07:09:35;;;;;;;7.95;4.50;;;15.60;99.90;;;;;;5036757;28;20117;-75
2023/08/27 07:12:00;;;;;;;8.85;4.72;;;15.70;99.90;;;;;;5047471;28;20053;-74
2023/08/27 07:14:26;;;;;;;9.60;4.22;;;15.70;99.90;;;;;;5017286;28;20046;-75
2023/08/27 07:16:52;;;;;;;9.10;4.90;;;15.80;99.90;;;;;;5035829;28;20041;-75
2023/08/27 07:19:17;;;;;;;13.48;4.35;;;15.80;99.90;;;;;;5035770;28;20068;-74
2023/08/27 07:21:43;;;;;;;5.32;3.63;;;15.90;99.90;;;;;;5035122;28;20042;-74
2023/08/27 07:24:08;;;;;;;5.43;3.53;;;16.00;99.90;;;;;;5017461;28;20049;-74
2023/08/27 07:26:34;;;;;;;7.93;4.00;;;16.10;99.90;;;;;;5017758;28;20045;-74
2023/08/27 07:29:00;;;;;;;6.40;3.95;;;16.30;99.90;;;;;;5016821;28;20049;-75
2023/08/27 07:31:26;;;;;;;5.95;3.35;;;16.70;99.90;;;;;;5017588;28;20133;-75
2023/08/27 07:33:54;;;;;;;7.10;3.25;;;17.50;99.90;;;;;;5017220;28;20397;-73
2023/08/27 07:36:20;;;;;;;6.00;2.90;;;18.50;99.90;;;;;;5034830;28;20056;-73
2023/08/27 07:38:45;;;;;;;5.28;2.40;;;19.40;99.90;;;;;;5035526;28;20052;-73
2023/08/27 07:41:11;;;;;;;5.20;1.92;;;20.20;99.90;;;;;;5035153;28;20048;-73
2023/08/27 07:43:37;;;;;;;3.80;1.60;;;21.00;99.90;;;;;;5034507;28;20541;-74
2023/08/27 07:46:03;;;;;;;3.58;1.70;;;21.70;99.90;;;;;;5017354;28;20057;-73
2023/08/27 07:48:30;;;;;;;3.90;1.40;;;22.30;99.90;;;;;;5036636;28;20040;-73
2023/08/27 07:50:57;;;;;;;3.67;1.30;;;22.10;99.90;;;;;;5033864;28;20400;-74
2023/08/27 07:53:23;;;;;;;1.55;0.80;;;22.20;99.90;;;;;;5043195;28;20447;-74
2023/08/27 07:55:50;;;;;;;2.78;0.85;;;22.80;99.90;;;;;;5034775;28;20053;-74
2023/08/27 07:58:15;;;;;;;4.03;1.10;;;23.40;99.90;;;;;;5034824;28;20080;-73
2023/08/27 08:00:41;;;;;;;2.78;1.10;;;23.80;99.90;;;;;;5034896;28;20045;-73
2023/08/27 08:03:07;;;;;;;2.20;0.80;;;23.90;99.90;;;;;;5034015;28;20045;-75
2023/08/27 08:05:32;;;;;;;2.63;0.90;;;24.00;99.90;;;;;;5034841;28;20033;-75
2023/08/27 08:08:00;;;;;;;1.42;0.80;;;24.40;99.90;;;;;;5034144;28;20072;-75
2023/08/27 08:10:26;;;;;;;2.78;1.08;;;24.40;99.50;;;;;;5016172;28;20049;-75
2023/08/27 08:12:52;;;;;;;1.23;0.60;;;25.00;99.30;;;;;;5034260;28;20184;-74
2023/08/27 08:15:18;;;;;;;0.93;0.50;;;24.70;98.00;;;;;;5034851;28;20045;-74
2023/08/27 08:17:44;;;;;;;1.48;0.55;;;24.90;96.20;;;;;;5033988;28;20080;-75
2023/08/27 08:20:11;;;;;;;2.05;0.60;;;24.90;96.80;;;;;;5024476;28;20497;-75
2023/08/27 08:22:36;;;;;;;3.22;0.70;;;25.20;98.30;;;;;;5041436;28;20082;-75
2023/08/27 08:25:02;;;;;;;2.70;0.57;;;25.40;95.90;;;;;;5015599;28;20124;-75
2023/08/27 08:27:28;;;;;;;1.17;0.60;;;25.70;95.50;;;;;;5036142;28;20100;-76
2023/08/27 08:29:54;;;;;;;1.27;0.70;;;25.80;95.50;;;;;;5029891;28;20041;-76
2023/08/27 08:32:20;;;;;;;2.85;0.63;;;26.40;93.20;;;;;;5035306;28;20487;-77
2023/08/27 08:34:46;;;;;;;1.75;0.70;;;26.30;94.40;;;;;;5054447;28;20041;-75
2023/08/27 08:37:11;;;;;;;2.42;0.80;;;26.20;95.60;;;;;;5053417;28;20056;-78
2023/08/27 08:39:37;;;;;;;1.77;0.75;;;26.50;93.70;;;;;;5053681;28;20440;-75
2023/08/27 08:42:31;;;;;;;2.20;0.75;;;26.40;93.90;;;;;;5053660;28;20048;-77
2023/08/27 08:45:15;;;;;;;2.22;0.93;;;26.80;93.40;;;;;;5035816;28;20484;-78
2023/08/27 08:47:43;;;;;;;1.83;0.50;;;27.00;93.40;;;;;;5053111;28;20103;-77
2023/08/27 08:50:10;;;;;;;1.77;0.63;;;27.10;93.10;;;;;;5035726;28;20068;-75
2023/08/27 08:52:40;;;;;;;1.08;0.57;;;26.90;92.90;;;;;;5035154;28;20562;-77
2023/08/27 08:55:16;;;;;;;1.00;0.50;;;27.10;93.40;;;;;;5052945;28;20053;-76
2023/08/27 08:58:09;;;;;;;1.83;0.70;;;27.20;93.20;;;;;;5053092;28;20053;-78
2023/08/27 09:00:35;;;;;;;1.67;0.80;;;26.80;93.90;;;;;;5053150;28;20052;-79
2023/08/27 09:03:03;;;;;;;1.92;0.50;;;26.90;93.20;;;;;;5053447;28;20119;-90
2023/08/27 09:05:30;;;;;;;1.23;0.50;;;26.60;92.10;;;;;;5035540;28;20433;-76
2023/08/27 09:07:56;;;;;;;1.55;0.77;;;25.80;93.20;;;;;;5052097;28;20057;-77
2023/08/27 09:10:27;;;;;;;1.50;0.70;;;25.30;93.00;;;;;;5035844;28;20103;-76
2023/08/27 09:12:57;;;;;;;1.85;0.68;;;24.50;94.70;;;;;;5053584;28;20041;-77
2023/08/27 09:15:24;;;;;;;1.48;0.68;;;24.20;95.90;;;;;;5035654;28;20036;-76
2023/08/27 09:17:49;;;;;;;2.65;1.23;;;23.90;94.50;;;;;;5052761;28;20082;-79
2023/08/27 09:20:21;;;;;;;3.15;0.90;;;24.20;94.90;;;;;;5035050;28;20099;-79
2023/08/27 09:22:47;;;;;;;1.80;0.70;;;24.90;95.10;;;;;;5034170;28;20085;-77
2023/08/27 09:25:13;;;;;;;2.88;0.90;;;24.90;94.90;;;;;;5035178;28;20133;-75
2023/08/27 09:27:39;;;;;;;2.15;1.00;;;23.80;96.00;;;;;;5035072;28;20044;-81
2023/08/27 09:30:06;;;;;;;1.90;1.10;;;23.30;96.70;;;;;;5034957;28;20056;-76
2023/08/27 09:32:32;;;;;;;2.67;0.88;;;22.90;97.90;;;;;;5035398;28;20075;-76
2023/08/27 09:34:59;;;;;;;2.40;1.10;;;22.60;98.40;;;;;;5051743;28;20056;-74
2023/08/27 09:37:36;;;;;;;3.88;1.10;;;22.10;99.00;;;;;;5037358;28;20481;-76
2023/08/27 09:40:04;;;;;;;2.85;1.20;;;21.80;99.60;;;;;;5055660;28;20044;-76
2023/08/27 09:42:32;;;;;;;2.65;1.17;;;21.60;99.90;;;;;;5053038;28;20102;-74
2023/08/27 09:44:58;;;;;;;3.60;1.15;;;21.70;99.90;;;;;;5038653;28;20045;-79
2023/08/27 09:47:38;;;;;;;2.15;1.00;;;21.30;99.90;;;;;;5056962;28;20033;-73
2023/08/27 09:50:15;;;;;;;2.45;1.10;;;20.90;99.90;;;;;;5056716;28;20029;-76
2023/08/27 09:52:42;;;;;;;2.60;1.00;;;20.80;99.90;;;;;;5056591;28;20512;-76
2023/08/27 09:55:16;;;;;;;2.63;1.13;;;20.40;99.90;;;;;;5038692;28;20124;-75
2023/08/27 09:57:49;;;;;;;3.08;1.20;;;20.60;99.90;;;;;;5033962;28;20065;-76
2023/08/27 10:00:16;;;;;;;2.88;1.40;;;21.40;99.90;;;;;;5051946;28;20051;-80
2023/08/27 10:02:51;;;;;;;3.00;1.10;;;22.60;99.90;;;;;;5047621;28;20045;-77
2023/08/27 10:05:17;;;;;;;3.55;1.30;;;23.80;98.20;;;;;;5023974;28;20051;-77
2023/08/27 10:07:56;;;;;;;2.72;1.20;;;24.80;97.50;;;;;;5052659;28;20144;-76
2023/08/27 10:10:22;;;;;;;3.00;1.17;;;25.40;96.10;;;;;;5052088;28;20129;-79
2023/08/27 10:12:48;;;;;;;2.80;1.10;;;25.90;96.20;;;;;;5020918;28;20049;-77
2023/08/27 10:15:16;;;;;;;2.83;1.27;;;25.80;95.60;;;;;;5032725;28;20096;-77
2023/08/27 10:17:42;;;;;;;1.90;0.90;;;26.10;96.00;;;;;;5032267;28;20041;-80
2023/08/27 10:20:10;;;;;;;2.33;0.93;;;26.30;95.40;;;;;;5037236;28;20041;-81
2023/08/27 10:22:37;;;;;;;2.60;1.08;;;26.30;93.90;;;;;;5065477;28;20037;-89
2023/08/27 10:25:06;;;;;;;1.67;0.80;;;25.90;94.90;;;;;;5059057;28;20033;-87
2023/08/27 10:27:33;;;;;;;2.58;0.80;;;25.90;94.20;;;;;;5058335;28;20131;-81
2023/08/27 10:30:00;;;;;;;1.77;0.82;;;26.50;92.80;;;;;;5047468;28;20041;-79
2023/08/27 10:32:26;;;;;;;3.03;1.25;;;27.10;93.80;;;;;;5055761;28;20040;-78
2023/08/27 10:34:52;;;;;;;4.28;1.10;;;27.10;92.30;;;;;;5062170;28;20029;-82
2023/08/27 10:37:19;;;;;;;6.15;1.08;;;27.40;92.80;;;;;;5039281;28;20049;-81
2023/08/27 10:39:48;;;;;;;3.17;0.90;;;27.50;92.40;;;;;;5058936;28;20084;-79
2023/08/27 10:42:33;;;;;;;5.22;0.88;;;27.50;91.50;;;;;;5056012;28;20041;-80
2023/08/27 10:45:12;;;;;;;2.58;0.75;;;26.40;91.80;;;;;;5054088;28;20102;-77
2023/08/27 10:47:38;;;;;;;3.47;0.80;;;25.10;92.30;;;;;;5061106;28;20045;-78
2023/08/27 10:50:04;;;;;;;6.95;1.17;;;23.70;94.20;;;;;;5041339;28;20053;-78
2023/08/27 10:52:48;;;;;;;2.83;0.70;;;22.60;95.40;;;;;;5072389;28;20048;-79
2023/08/27 10:55:14;;;;;;;1.17;0.43;;;21.70;95.60;;;;;;5039789;28;20037;-81
2023/08/27 10:57:40;;;;;;;1.85;0.65;;;21.30;95.80;;;;;;5054452;28;20037;-86
2023/08/27 11:00:10;;;;;;;1.85;0.50;;;20.50;95.50;;;;;;5056986;28;20357;-81
2023/08/27 11:02:56;;;;;;;1.35;0.50;;;20.20;97.20;;;;;;5040298;28;20048;-80
2023/08/27 11:05:25;;;;;;;;;;;19.90;98.40;;;;;;5053047;28;20542;-82
2023/08/27 11:07:51;;;;;;;0.95;0.50;;;19.50;99.80;;;;;;5034589;28;19927;-81
2023/08/27 11:10:17;;;;;;;2.83;0.60;;;19.30;99.90;;;;;;5033549;28;20071;-78
2023/08/27 11:12:43;;;;;;;2.45;0.60;;;18.90;99.90;;;;;;5027798;28;20472;-82
2023/08/27 11:15:11;;;;;;;5.07;0.70;;;18.90;99.90;;;;;;5050515;28;20124;-84
2023/08/27 11:17:39;;;;;;;3.38;0.75;;;18.40;99.90;;;;;;5056661;28;20131;-83
2023/08/27 11:20:26;;;;;;;3.25;0.75;;;18.10;99.90;;;;;;5053095;28;20056;-83
2023/08/27 11:22:56;;;;;;;3.38;0.77;;;17.90;99.90;;;;;;5040584;28;20030;-84
2023/08/27 11:25:26;;;;;;;6.43;0.90;;;17.80;99.90;;;;;;5052808;28;20259;-87
2023/08/27 11:27:52;;;;;;;4.47;0.80;;;17.60;99.90;;;;;;5037573;28;20037;-88
2023/08/27 11:30:19;;;;;;;3.65;0.70;;;17.70;99.90;;;;;;5032678;28;20045;-84
2023/08/27 11:32:44;;;;;;;3.50;0.82;;;17.70;99.90;;;;;;5041594;28;20456;-80
2023/08/27 11:35:14;;;;;;;2.55;0.70;;;17.70;99.90;;;;;;5025708;28;20037;-80
2023/08/27 11:37:40;;;;;;;4.70;0.95;;;17.70;99.90;;;;;;5020935;28;20061;-82
2023/08/27 11:40:15;;;;;;;2.63;0.70;;;17.80;99.90;;;;;;5047337;28;20396;-77
2023/08/27 11:42:51;;;;;;;2.00;0.60;;;18.00;99.90;;;;;;5040583;28;20052;-84
2023/08/27 11:45:16;;;;;;;6.05;1.00;;;18.30;99.90;;;;;;5037332;28;20124;-81
2023/08/27 11:47:45;;;;;;;3.15;0.60;;;18.60;99.90;;;;;;5066736;28;20120;-78
2023/08/27 11:50:11;;;;;;;2.42;0.70;;;18.90;99.90;;;;;;5044129;28;20503;-78
2023/08/27 11:52:38;;;;;;;3.08;1.20;;;19.10;99.90;;;;;;5046711;28;20040;-77
2023/08/27 11:55:05;;;;;;;2.05;0.90;;;19.40;99.90;;;;;;5063428;28;20048;-75
2023/08/27 11:57:33;;;;;;;2.95;0.90;;;20.20;99.90;;;;;;5068617;28;20139;-75
2023/08/27 12:00:07;;;;;;;2.10;0.60;;;21.20;99.90;;;;;;5061739;28;20049;-78
2023/08/27 12:02:33;;;;;;;1.60;0.65;;;21.80;99.90;;;;;;5063968;28;20036;-76
2023/08/27 12:04:59;;;;;;;2.33;0.73;;;22.50;99.90;;;;;;5046322;28;20083;-77
2023/08/27 12:07:27;;;;;;;2.70;0.60;;;23.00;99.80;;;;;;5070155;28;20468;-77
2023/08/27 12:09:53;;;;;;;3.17;0.70;;;23.10;98.40;;;;;;5041771;28;20053;-78
2023/08/27 12:12:18;;;;;;;1.80;0.60;;;23.10;99.30;;;;;;5064568;28;20153;-79
2023/08/27 12:14:45;;;;;;;1.75;0.65;;;23.50;99.00;;;;;;5047708;28;20456;-75
2023/08/27 12:17:14;;;;;;;2.08;0.75;;;24.00;98.20;;;;;;5070558;28;20570;-77
2023/08/27 12:19:42;;;;;;;2.42;0.70;;;24.30;97.30;;;;;;5042403;28;20140;-76
2023/08/27 12:22:08;;;;;;;3.47;0.77;;;24.20;97.30;;;;;;5061210;28;20087;-76
2023/08/27 12:24:41;;;;;;;2.70;0.70;;;24.50;96.90;;;;;;5063170;28;20070;-76
2023/08/27 12:27:09;;;;;;;3.30;0.65;;;24.70;96.80;;;;;;5050541;28;20056;-77
2023/08/27 12:29:46;;;;;;;3.33;0.75;;;24.90;96.50;;;;;;5042669;28;20044;-76
2023/08/27 12:32:19;;;;;;;2.50;0.77;;;24.00;96.40;;;;;;5052173;28;20089;-74
2023/08/27 12:34:52;;;;;;;2.80;0.70;;;23.50;97.60;;;;;;5061403;28;20445;-76
2023/08/27 12:37:24;;;;;;;2.05;0.98;;;23.20;97.80;;;;;;5044011;28;20471;-75
2023/08/27 12:39:51;;;;;;;1.98;0.70;;;22.90;98.80;;;;;;5039721;28;20585;-77
2023/08/27 12:42:17;;;;;;;2.20;0.68;;;23.20;99.80;;;;;;5063165;28;20090;-78